Time;durP1;ratioP1;P1;durP2;ratioP2;P2;SDS_P1;SDS_P2;PMS_P1;PMS_P2;Temp;Humidity;BMP_temperature;BMP_pressure;BME280_temperature;BME280_humidity;BME280_pressure;Samples;Min_cycle;Max_cycle;Signal;HPM_P1;HPM_P2
2022/08/02 00:00:14;;;;;;;1.25;1.15;;;;;;;33.79;27.94;98150.84;5059467;28;20052;-79
2022/08/02 00:02:41;;;;;;;1.40;1.30;;;;;;;33.87;27.66;98157.66;5061881;28;20033;-79
2022/08/02 00:05:08;;;;;;;1.60;1.25;;;;;;;33.85;27.77;98154.53;5065696;28;20040;-79
2022/08/02 00:07:34;;;;;;;1.52;1.42;;;;;;;33.90;27.52;98153.81;5068658;28;20029;-79
2022/08/02 00:10:01;;;;;;;3.15;1.55;;;;;;;33.87;27.88;98151.97;5071272;28;20052;-79
2022/08/02 00:12:27;;;;;;;4.53;1.77;;;;;;;33.72;27.87;98157.78;5072122;28;20540;-79
2022/08/02 00:14:53;;;;;;;1.92;1.83;;;;;;;33.66;28.67;98158.94;5061629;28;20059;-79
2022/08/02 00:17:19;;;;;;;2.20;1.90;;;;;;;33.73;28.66;98156.47;5065795;28;20045;-79
2022/08/02 00:19:46;;;;;;;1.90;1.80;;;;;;;33.78;28.25;98155.75;5065364;28;20183;-79
2022/08/02 00:22:12;;;;;;;2.30;2.20;;;;;;;33.97;28.14;98150.53;5072195;28;20036;-79
2022/08/02 00:24:38;;;;;;;2.22;2.03;;;;;;;34.05;28.10;98152.47;5051471;28;20024;-79
2022/08/02 00:27:06;;;;;;;1.85;1.75;;;;;;;34.16;28.04;98163.22;5070475;28;20068;-79
2022/08/02 00:29:33;;;;;;;1.58;1.48;;;;;;;34.05;27.47;98158.19;5070306;28;20115;-79
2022/08/02 00:32:00;;;;;;;2.10;1.52;;;;;;;33.94;27.63;98165.78;5069776;28;20069;-79
2022/08/02 00:34:26;;;;;;;1.33;1.23;;;;;;;33.56;27.74;98157.53;5070119;28;20435;-79
2022/08/02 00:36:52;;;;;;;2.95;1.40;;;;;;;33.22;28.21;98170.47;5070064;28;20388;-79
2022/08/02 00:39:18;;;;;;;1.40;1.30;;;;;;;33.31;28.27;98176.03;5057942;28;20503;-79
2022/08/02 00:41:47;;;;;;;1.02;1.02;;;;;;;33.37;27.74;98171.22;5069877;28;20146;-79
2022/08/02 00:44:14;;;;;;;1.33;1.23;;;;;;;33.15;28.53;98171.69;5068524;28;20495;-79
2022/08/02 00:46:40;;;;;;;2.97;1.30;;;;;;;33.40;28.06;98164.53;5066435;28;20024;-79
2022/08/02 00:49:06;;;;;;;1.27;1.20;;;;;;;33.44;27.86;98171.56;5068769;28;20041;-79
2022/08/02 00:51:33;;;;;;;1.50;1.40;;;;;;;33.63;27.71;98174.22;5065155;28;20029;-79
2022/08/02 00:53:59;;;;;;;1.20;1.15;;;;;;;33.57;27.98;98176.97;5067882;28;20064;-79
2022/08/02 00:56:25;;;;;;;1.20;1.20;;;;;;;33.54;28.21;98180.03;5063960;28;20034;-79
2022/08/02 00:58:51;;;;;;;3.28;1.77;;;;;;;33.49;28.32;98175.81;5067728;28;20032;-79
2022/08/02 01:01:17;;;;;;;2.10;2.00;;;;;;;33.52;28.77;98180.50;5063774;28;20112;-79
2022/08/02 01:03:43;;;;;;;1.83;1.70;;;;;;;33.55;28.61;98185.22;5061155;28;20040;-78
2022/08/02 01:06:09;;;;;;;4.15;1.98;;;;;;;33.66;28.52;98185.38;5068365;28;20031;-79
2022/08/02 01:08:38;;;;;;;2.10;2.00;;;;;;;33.74;28.30;98185.75;5067183;28;20041;-79
2022/08/02 01:11:05;;;;;;;1.80;1.70;;;;;;;33.83;28.51;98202.69;5066575;28;20035;-79
2022/08/02 01:13:31;;;;;;;1.67;1.55;;;;;;;33.67;28.21;98194.72;5067547;28;20169;-79
2022/08/02 01:16:17;;;;;;;2.00;1.80;;;;;;;33.49;28.90;98197.78;5070259;28;20060;-79
2022/08/02 01:18:49;;;;;;;1.70;1.60;;;;;;;33.49;28.51;98197.78;5072162;28;20539;-79
2022/08/02 01:21:48;;;;;;;1.45;1.35;;;;;;;33.56;28.92;98194.56;5073336;28;20063;-79
2022/08/02 01:24:43;;;;;;;1.40;1.30;;;;;;;33.62;28.61;98192.56;5078059;28;20039;-79
2022/08/02 01:27:42;;;;;;;1.20;1.10;;;;;;;33.67;28.37;98198.34;5073853;28;20033;-79
2022/08/02 01:30:09;;;;;;;1.52;1.42;;;;;;;33.59;28.81;98194.34;5082892;28;20045;-79
2022/08/02 01:32:43;;;;;;;1.42;1.33;;;;;;;34.01;28.38;98202.41;5072945;28;20028;-79
2022/08/02 01:35:27;;;;;;;1.50;1.40;;;;;;;33.97;28.61;98196.94;5056976;28;20035;-79
2022/08/02 01:38:22;;;;;;;1.77;1.67;;;;;;;33.96;28.18;98203.09;5075357;28;20078;-79
2022/08/02 01:40:52;;;;;;;1.63;1.52;;;;;;;34.07;28.84;98206.16;5075781;28;20043;-79
2022/08/02 01:43:22;;;;;;;1.50;1.40;;;;;;;34.29;28.81;98212.09;5074746;28;20037;-79
2022/08/02 01:45:49;;;;;;;1.60;1.50;;;;;;;34.18;28.61;98208.31;5072912;28;20028;-79
2022/08/02 01:48:17;;;;;;;1.75;1.65;;;;;;;34.29;28.49;98206.38;5065941;28;20123;-79
2022/08/02 01:50:45;;;;;;;1.58;1.48;;;;;;;34.46;27.97;98203.72;5069992;28;20032;-79
2022/08/02 01:53:12;;;;;;;1.58;1.48;;;;;;;34.53;28.11;98212.66;5063139;28;20102;-79
2022/08/02 01:55:49;;;;;;;1.48;1.38;;;;;;;34.64;28.32;98212.75;5086899;28;20476;-79
2022/08/02 01:58:19;;;;;;;1.83;1.73;;;;;;;34.75;28.02;98212.84;5068856;28;20039;-79
2022/08/02 02:00:48;;;;;;;1.88;1.63;;;;;;;34.77;28.21;98212.38;5066742;28;20391;-79
2022/08/02 02:03:20;;;;;;;1.85;1.75;;;;;;;34.86;28.13;98209.34;5072778;28;20041;-79
2022/08/02 02:05:49;;;;;;;2.53;2.33;;;;;;;34.72;28.32;98211.03;5050355;28;20447;-79
2022/08/02 02:08:20;;;;;;;1.88;1.77;;;;;;;34.59;28.75;98207.78;5062396;28;20044;-79
2022/08/02 02:10:46;;;;;;;2.38;2.25;;;;;;;34.37;29.10;98210.38;5060609;28;20037;-79
2022/08/02 02:13:16;;;;;;;3.05;2.13;;;;;;;34.47;29.07;98214.63;5070192;28;20033;-78
2022/08/02 02:15:49;;;;;;;1.90;1.80;;;;;;;34.66;29.15;98210.19;5067921;28;20025;-79
2022/08/02 02:18:20;;;;;;;2.55;2.05;;;;;;;34.82;29.01;98208.00;5065348;28;20044;-79
2022/08/02 02:20:47;;;;;;;1.73;1.63;;;;;;;34.73;29.08;98204.03;5073901;28;20029;-79
2022/08/02 02:23:13;;;;;;;1.90;1.80;;;;;;;34.53;29.71;98204.09;5071323;28;20090;-79
2022/08/02 02:25:44;;;;;;;2.58;2.10;;;;;;;34.41;29.54;98196.66;5070627;28;20074;-79
2022/08/02 02:28:23;;;;;;;3.08;2.85;;;;;;;34.10;30.49;98199.41;5071606;28;20163;-79
2022/08/02 02:30:54;;;;;;;3.72;2.83;;;;;;;33.89;30.66;98209.22;5072369;28;20433;-79
2022/08/02 02:33:21;;;;;;;;;;;;;;;33.67;30.87;98206.09;5059182;28;20100;-79
2022/08/02 02:35:50;;;;;;;2.80;2.55;;;;;;;33.50;31.49;98207.88;5072630;28;19920;-79
2022/08/02 02:38:19;;;;;;;2.60;2.40;;;;;;;33.72;31.19;98208.25;5067486;28;20099;-78
2022/08/02 02:40:46;;;;;;;3.40;3.00;;;;;;;33.87;31.27;98209.75;5058125;28;20434;-79
2022/08/02 02:43:14;;;;;;;3.78;3.05;;;;;;;33.84;31.19;98210.72;5069216;28;20024;-79
2022/08/02 02:45:42;;;;;;;3.08;2.63;;;;;;;33.52;31.88;98214.66;5066134;28;20021;-79
2022/08/02 02:48:10;;;;;;;3.45;3.15;;;;;;;33.66;31.30;98208.16;5060177;28;20484;-79
2022/08/02 02:50:37;;;;;;;3.30;3.10;;;;;;;33.90;31.01;98210.81;5072054;28;20028;-79
2022/08/02 02:53:05;;;;;;;3.05;2.85;;;;;;;33.78;31.33;98207.03;5054382;28;20040;-78
2022/08/02 02:55:32;;;;;;;3.65;3.28;;;;;;;33.75;31.21;98207.25;5066847;28;20380;-79
2022/08/02 02:57:58;;;;;;;5.20;3.80;;;;;;;34.07;30.79;98206.16;5072147;28;20025;-79
2022/08/02 03:03:10;;;;;;;3.40;3.10;;;;;;;34.46;30.16;98215.13;5069669;28;20041;-78
2022/08/02 03:05:36;;;;;;;3.40;3.10;;;;;;;34.75;30.01;98212.84;5071622;28;20033;-79
2022/08/02 03:08:02;;;;;;;3.10;2.90;;;;;;;34.93;29.52;98219.50;5056140;28;20127;-79
2022/08/02 03:10:28;;;;;;;2.50;2.28;;;;;;;35.00;29.62;98213.34;5069686;28;20039;-79
2022/08/02 03:12:57;;;;;;;3.28;2.70;;;;;;;35.08;29.28;98217.34;5071125;28;20171;-79
2022/08/02 03:15:25;;;;;;;3.13;2.83;;;;;;;34.87;29.44;98215.84;5072122;28;20032;-79
2022/08/02 03:17:51;;;;;;;3.40;3.08;;;;;;;34.57;29.89;98213.19;5051332;28;20060;-79
2022/08/02 03:20:19;;;;;;;3.00;2.70;;;;;;;34.56;30.23;98217.34;5071737;28;20511;-78
2022/08/02 03:22:46;;;;;;;4.00;3.22;;;;;;;34.67;29.95;98217.47;5070886;28;20036;-79
2022/08/02 03:25:13;;;;;;;3.30;2.80;;;;;;;34.66;30.01;98210.19;5066744;28;20100;-78
2022/08/02 03:27:40;;;;;;;2.95;2.75;;;;;;;34.56;30.04;98214.50;5042508;28;20048;-78
2022/08/02 03:30:08;;;;;;;2.67;2.47;;;;;;;34.84;29.80;98217.63;5065767;28;20044;-79
2022/08/02 03:32:39;;;;;;;3.40;3.10;;;;;;;34.99;29.51;98220.31;5085955;28;20451;-79
2022/08/02 03:35:08;;;;;;;2.78;2.58;;;;;;;34.93;29.53;98213.78;5069679;28;20078;-79
2022/08/02 03:37:35;;;;;;;2.85;2.63;;;;;;;34.93;29.70;98223.16;5068966;28;20032;-79
2022/08/02 03:40:05;;;;;;;2.60;2.40;;;;;;;34.65;29.85;98222.88;5066770;28;20463;-78
2022/08/02 03:42:31;;;;;;;3.33;2.87;;;;;;;34.27;30.39;98217.50;5045857;28;20033;-78
2022/08/02 03:44:59;;;;;;;3.25;3.05;;;;;;;34.10;30.74;98230.00;5066024;28;20020;-78
2022/08/02 03:47:26;;;;;;;3.72;3.42;;;;;;;34.06;31.23;98224.50;5063977;28;20127;-79
2022/08/02 03:49:54;;;;;;;3.58;3.28;;;;;;;34.09;30.79;98232.06;5070130;28;20024;-79
2022/08/02 03:52:20;;;;;;;4.07;3.70;;;;;;;34.22;30.94;98229.63;5070210;28;20036;-79
2022/08/02 03:54:47;;;;;;;4.65;4.25;;;;;;;34.12;30.79;98230.28;5069963;28;20075;-79
2022/08/02 03:57:13;;;;;;;4.25;3.85;;;;;;;34.07;30.95;98229.69;5070104;28;20511;-78
2022/08/02 03:59:45;;;;;;;3.97;3.53;;;;;;;34.07;31.50;98238.25;5070765;28;20056;-79
2022/08/02 04:02:12;;;;;;;5.40;4.82;;;;;;;34.01;31.04;98239.44;5070586;28;20037;-79
2022/08/02 04:04:39;;;;;;;5.47;4.60;;;;;;;33.87;31.24;98237.44;5070145;28;20025;-79
2022/08/02 04:07:05;;;;;;;6.25;5.65;;;;;;;33.83;31.51;98251.13;5078361;28;20033;-79
2022/08/02 04:09:31;;;;;;;5.72;5.22;;;;;;;33.66;31.70;98248.03;5070665;28;20036;-79
2022/08/02 04:11:58;;;;;;;6.35;5.50;;;;;;;33.65;31.65;98251.38;5067620;28;20167;-79
2022/08/02 04:14:25;;;;;;;7.18;5.03;;;;;;;33.81;31.58;98256.53;5069293;28;20395;-79
2022/08/02 04:17:00;;;;;;;6.78;5.90;;;;;;;34.02;31.36;98249.56;5066551;28;20028;-78
2022/08/02 04:19:31;;;;;;;5.22;4.80;;;;;;;33.96;31.11;98246.63;5068292;28;20036;-79
2022/08/02 04:22:03;;;;;;;5.95;5.35;;;;;;;33.92;31.42;98260.31;5069531;28;20048;-79
2022/08/02 04:24:37;;;;;;;6.70;5.90;;;;;;;34.02;31.18;98255.28;5069677;28;20101;-79
2022/08/02 04:27:06;;;;;;;6.05;5.40;;;;;;;34.24;31.09;98260.50;5065916;28;20029;-79
2022/08/02 04:29:33;;;;;;;7.53;6.28;;;;;;;34.53;30.40;98260.34;5071167;28;20052;-79
2022/08/02 04:32:01;;;;;;;6.97;5.78;;;;;;;34.31;30.77;98263.69;5066611;28;20178;-79
2022/08/02 04:34:27;;;;;;;6.10;5.45;;;;;;;34.18;31.18;98266.13;5069899;28;20086;-79
2022/08/02 04:36:54;;;;;;;6.22;5.45;;;;;;;34.50;30.54;98264.16;5072619;28;20499;-79
2022/08/02 04:39:20;;;;;;;6.18;5.57;;;;;;;34.55;30.50;98269.97;5073262;28;20365;-79
2022/08/02 04:41:46;;;;;;;7.07;5.80;;;;;;;34.67;30.45;98271.66;5072384;28;20082;-79
2022/08/02 04:44:13;;;;;;;6.65;5.95;;;;;;;34.61;30.01;98270.78;5086561;28;20496;-79
2022/08/02 04:46:40;;;;;;;8.48;6.45;;;;;;;34.39;30.81;98269.75;5077113;28;20437;-79
2022/08/02 04:49:07;;;;;;;5.10;4.70;;;;;;;33.86;31.31;98275.78;5067793;28;20467;-79
2022/08/02 04:51:41;;;;;;;6.00;5.07;;;;;;;34.26;31.09;98281.50;5069396;28;20024;-78
2022/08/02 04:54:09;;;;;;;5.50;5.00;;;;;;;34.09;31.15;98271.97;5074387;28;20111;-78
2022/08/02 04:56:36;;;;;;;6.32;5.07;;;;;;;34.37;30.94;98281.66;5072156;28;20032;-79
2022/08/02 04:59:02;;;;;;;4.97;4.57;;;;;;;34.47;30.67;98288.00;5070144;28;20092;-79
2022/08/02 05:01:28;;;;;;;5.20;4.80;;;;;;;34.65;30.40;98279.16;5069791;28;20056;-78
2022/08/02 05:03:54;;;;;;;6.10;5.53;;;;;;;34.57;30.40;98280.88;5072141;28;20094;-79
2022/08/02 05:06:20;;;;;;;6.78;4.57;;;;;;;34.57;30.49;98283.72;5072846;28;20028;-80
2022/08/02 05:08:48;;;;;;;5.70;5.20;;;;;;;34.22;31.14;98286.63;5071779;28;20029;-80
2022/08/02 05:11:14;;;;;;;5.03;4.63;;;;;;;34.31;30.85;98282.88;5071277;28;20496;-79
2022/08/02 05:13:40;;;;;;;5.03;4.55;;;;;;;34.13;31.66;98286.78;5072533;28;20055;-79
2022/08/02 05:16:06;;;;;;;6.03;5.53;;;;;;;34.25;31.35;98291.34;5072388;28;20044;-80
2022/08/02 05:18:33;;;;;;;5.72;5.18;;;;;;;34.37;30.78;98295.13;5070204;28;20527;-80
2022/08/02 05:20:59;;;;;;;6.03;5.38;;;;;;;34.29;31.38;98293.97;5071439;28;20039;-79
2022/08/02 05:23:25;;;;;;;8.68;7.88;;;;;;;33.81;31.78;98294.34;5066501;28;20540;-79
2022/08/02 05:25:51;;;;;;;6.43;5.93;;;;;;;33.59;32.49;98290.38;5063971;28;20025;-80
2022/08/02 05:28:17;;;;;;;5.50;5.10;;;;;;;33.72;31.95;98297.34;5070164;28;20044;-80
2022/08/02 05:30:43;;;;;;;6.22;5.65;;;;;;;33.72;32.26;98288.00;5066770;28;20039;-80
2022/08/02 05:33:10;;;;;;;7.40;6.70;;;;;;;33.57;32.37;98295.78;5066558;28;20048;-79
2022/08/02 05:35:36;;;;;;;6.45;5.80;;;;;;;32.96;33.38;98300.38;5068313;28;20388;-80
2022/08/02 05:38:02;;;;;;;7.15;6.45;;;;;;;33.39;32.48;98297.56;5074802;28;20043;-79
2022/08/02 05:40:28;;;;;;;8.13;7.30;;;;;;;33.61;32.39;98288.59;5067377;28;20048;-79
2022/08/02 05:42:55;;;;;;;7.38;6.68;;;;;;;33.79;32.11;98304.69;5072224;28;20504;-79
2022/08/02 05:45:22;;;;;;;7.65;5.95;;;;;;;33.60;32.82;98298.44;5073470;28;20430;-80
2022/08/02 05:47:48;;;;;;;6.93;6.03;;;;;;;34.08;31.63;98304.59;5066759;28;20036;-79
2022/08/02 05:50:14;;;;;;;7.20;6.03;;;;;;;34.36;31.55;98307.81;5075888;28;20111;-79
2022/08/02 05:53:02;;;;;;;6.15;5.55;;;;;;;34.58;31.33;98306.06;5073672;28;20035;-79
2022/08/02 05:55:33;;;;;;;7.80;6.40;;;;;;;33.92;31.69;98310.81;5064901;28;20131;-80
2022/08/02 05:58:28;;;;;;;10.63;6.65;;;;;;;34.27;31.51;98314.44;5066073;28;20400;-80
2022/08/02 06:00:55;;;;;;;6.05;5.45;;;;;;;34.43;31.01;98313.88;5075133;28;20493;-79
2022/08/02 06:03:30;;;;;;;6.00;5.35;;;;;;;34.79;31.28;98320.28;5071727;28;20040;-80
2022/08/02 06:06:03;;;;;;;6.88;6.07;;;;;;;34.44;31.15;98326.84;5062310;28;20119;-81
2022/08/02 06:08:42;;;;;;;5.32;4.80;;;;;;;34.46;31.29;98326.34;5073474;28;20081;-81
2022/08/02 06:11:13;;;;;;;6.80;5.18;;;;;;;34.43;31.21;98324.47;5070388;28;20177;-81
2022/08/02 06:13:44;;;;;;;;;;;;;;;34.42;30.75;98320.06;5070379;28;20048;-80
2022/08/02 06:16:10;;;;;;;6.28;5.68;;;;;;;34.81;30.96;98315.63;5071240;28;19920;-81
2022/08/02 06:18:39;;;;;;;6.75;6.15;;;;;;;34.82;31.53;98319.28;5070872;28;20184;-81
2022/08/02 06:21:07;;;;;;;7.22;6.32;;;;;;;34.69;31.77;98329.00;5053250;28;20040;-81
2022/08/02 06:23:38;;;;;;;8.57;5.95;;;;;;;35.40;30.69;98333.13;5065532;28;20097;-81
2022/08/02 06:26:07;;;;;;;6.82;6.13;;;;;;;34.99;30.92;98328.78;5086111;28;20043;-81
2022/08/02 06:28:37;;;;;;;6.47;5.78;;;;;;;34.80;31.01;98336.13;5066810;28;20047;-81
2022/08/02 06:31:04;;;;;;;6.10;5.25;;;;;;;34.45;31.78;98334.09;5068606;28;20033;-80
2022/08/02 06:33:30;;;;;;;6.80;5.88;;;;;;;33.99;32.35;98333.97;5072453;28;20115;-80
2022/08/02 06:36:02;;;;;;;6.00;5.40;;;;;;;33.99;34.04;98339.69;5070601;28;20507;-80
2022/08/02 06:38:38;;;;;;;8.50;5.80;;;;;;;34.97;31.47;98349.28;5072364;28;20033;-82
2022/08/02 06:41:12;;;;;;;6.38;5.78;;;;;;;35.05;30.70;98349.66;5070797;28;20036;-81
2022/08/02 06:43:53;;;;;;;6.47;5.35;;;;;;;35.06;31.22;98352.00;5073303;28;20040;-80
2022/08/02 06:46:19;;;;;;;5.28;4.85;;;;;;;34.75;31.67;98352.66;5072093;28;20035;-80
2022/08/02 06:48:46;;;;;;;5.47;4.97;;;;;;;34.98;30.29;98355.78;5075099;28;20043;-81
2022/08/02 06:51:12;;;;;;;6.13;4.82;;;;;;;34.68;30.86;98358.03;5070004;28;20032;-80
2022/08/02 06:53:39;;;;;;;5.57;4.95;;;;;;;35.12;30.69;98357.75;5070915;28;20401;-80
2022/08/02 06:56:05;;;;;;;4.60;4.20;;;;;;;35.76;30.43;98365.88;5052517;28;20033;-80
2022/08/02 06:58:31;;;;;;;6.50;5.85;;;;;;;35.06;31.45;98359.75;5074321;28;20068;-80
2022/08/02 07:00:58;;;;;;;5.43;4.93;;;;;;;34.51;31.99;98374.13;5063989;28;20035;-80
2022/08/02 07:03:27;;;;;;;5.88;5.40;;;;;;;34.48;31.14;98372.25;5071330;28;20095;-79
2022/08/02 07:05:53;;;;;;;6.22;5.63;;;;;;;33.88;35.05;98368.03;5072248;28;20051;-79
2022/08/02 07:08:22;;;;;;;7.35;6.65;;;;;;;34.65;30.93;98359.81;5065099;28;20429;-79
2022/08/02 07:10:48;;;;;;;7.40;6.70;;;;;;;34.85;31.36;98353.28;5066005;28;20132;-80
2022/08/02 07:13:23;;;;;;;6.70;6.05;;;;;;;34.83;30.73;98349.38;5069409;28;20029;-80
2022/08/02 07:15:49;;;;;;;5.95;5.47;;;;;;;34.83;31.57;98355.06;5063681;28;20032;-79
2022/08/02 07:18:16;;;;;;;5.78;5.28;;;;;;;35.01;31.20;98352.69;5073000;28;20041;-79
2022/08/02 07:20:42;;;;;;;6.63;5.93;;;;;;;35.15;30.39;98356.75;5072825;28;20033;-79
2022/08/02 07:23:08;;;;;;;6.00;5.50;;;;;;;35.55;30.13;98356.63;5060650;28;20373;-80
2022/08/02 07:25:34;;;;;;;6.60;6.00;;;;;;;35.79;31.23;98359.94;5073434;28;20060;-79
2022/08/02 07:28:01;;;;;;;6.38;5.55;;;;;;;35.96;30.27;98360.84;5055281;28;20024;-80
2022/08/02 07:30:27;;;;;;;7.53;6.78;;;;;;;35.24;30.61;98354.50;5072693;28;20040;-80
2022/08/02 07:32:53;;;;;;;6.57;6.00;;;;;;;35.54;31.94;98352.22;5072729;28;20107;-79
2022/08/02 07:35:20;;;;;;;6.80;6.20;;;;;;;35.26;32.21;98343.38;5071743;28;20041;-79
2022/08/02 07:37:47;;;;;;;6.00;5.50;;;;;;;36.01;30.01;98350.78;5072354;28;20058;-79
2022/08/02 07:40:14;;;;;;;7.07;6.50;;;;;;;34.70;36.69;98349.75;5066707;28;20055;-80
2022/08/02 07:42:42;;;;;;;10.23;6.95;;;;;;;34.70;38.32;98355.47;5071148;28;20103;-79
2022/08/02 07:45:08;;;;;;;7.75;7.05;;;;;;;34.73;34.83;98355.22;5071930;28;20029;-79
2022/08/02 07:47:42;;;;;;;7.60;6.90;;;;;;;34.68;32.21;98353.09;5071944;28;20024;-79
2022/08/02 07:50:11;;;;;;;7.32;6.72;;;;;;;35.28;36.55;98354.28;5072228;28;20496;-79
2022/08/02 07:52:38;;;;;;;8.23;7.53;;;;;;;34.96;31.48;98355.50;5072742;28;20059;-79
2022/08/02 07:55:06;;;;;;;6.45;5.60;;;;;;;34.87;33.83;98358.50;5071262;28;20020;-79
2022/08/02 07:57:32;;;;;;;7.15;6.47;;;;;;;34.82;31.97;98359.22;5072126;28;20033;-79
2022/08/02 07:59:58;;;;;;;5.63;5.22;;;;;;;35.20;31.55;98358.88;5068106;28;20037;-80
2022/08/02 08:02:25;;;;;;;6.43;5.82;;;;;;;35.42;31.54;98359.09;5071368;28;20029;-80
2022/08/02 08:04:51;;;;;;;5.55;5.05;;;;;;;35.76;30.53;98360.16;5071641;28;20370;-81
2022/08/02 08:07:18;;;;;;;5.55;5.15;;;;;;;35.96;32.63;98368.63;5070779;28;20108;-81
2022/08/02 08:09:46;;;;;;;5.68;5.28;;;;;;;36.04;29.20;98359.09;5069010;28;20029;-80
2022/08/02 08:12:12;;;;;;;5.22;4.82;;;;;;;36.03;31.11;98362.47;5071743;28;20385;-81
2022/08/02 08:14:38;;;;;;;6.82;6.32;;;;;;;35.06;32.48;98359.75;5072116;28;20035;-80
2022/08/02 08:17:05;;;;;;;6.53;5.93;;;;;;;35.04;32.30;98362.34;5072052;28;20062;-80
2022/08/02 08:19:32;;;;;;;6.53;6.03;;;;;;;34.86;32.58;98363.44;5053415;28;20045;-80
2022/08/02 08:22:02;;;;;;;6.90;6.22;;;;;;;35.46;31.94;98368.22;5068943;28;20492;-80
2022/08/02 08:24:28;;;;;;;6.53;6.03;;;;;;;35.69;30.66;98367.13;5069484;28;20027;-82
2022/08/02 08:26:55;;;;;;;6.40;5.85;;;;;;;35.62;32.06;98359.03;5067322;28;20040;-81
2022/08/02 08:29:22;;;;;;;6.57;5.85;;;;;;;35.39;31.78;98363.75;5072758;28;20048;-80
2022/08/02 08:31:48;;;;;;;6.95;5.07;;;;;;;35.45;30.16;98365.88;5074826;28;20037;-81
2022/08/02 08:34:15;;;;;;;6.00;5.40;;;;;;;34.97;31.84;98362.75;5076121;28;20056;-81
2022/08/02 08:36:41;;;;;;;9.57;4.95;;;;;;;35.60;29.97;98363.69;5072949;28;20028;-81
2022/08/02 08:39:08;;;;;;;6.78;5.45;;;;;;;35.86;30.06;98370.91;5071635;28;20041;-81
2022/08/02 08:41:35;;;;;;;5.97;5.38;;;;;;;35.09;31.83;98367.31;5075768;28;20037;-81
2022/08/02 08:44:02;;;;;;;5.35;4.93;;;;;;;35.52;30.55;98366.22;5071619;28;20103;-81
2022/08/02 08:46:34;;;;;;;4.82;4.43;;;;;;;35.55;31.55;98364.41;5073638;28;20166;-81
2022/08/02 08:49:08;;;;;;;6.18;4.50;;;;;;;35.66;32.77;98368.13;5079159;28;20063;-81
2022/08/02 08:51:40;;;;;;;4.57;4.18;;;;;;;35.02;31.90;98362.06;5073533;28;20037;-80
2022/08/02 08:54:11;;;;;;;4.53;4.22;;;;;;;34.87;35.22;98369.91;5069577;28;20056;-81
2022/08/02 08:56:38;;;;;;;;;;;;;;;34.94;30.71;98364.53;5072834;28;20067;-80
2022/08/02 08:59:05;;;;;;;3.92;3.63;;;;;;;35.01;33.73;98354.78;5073068;28;19921;-80
2022/08/02 09:01:32;;;;;;;3.60;3.40;;;;;;;35.41;29.80;98360.38;5072172;28;20058;-81
2022/08/02 09:03:58;;;;;;;3.28;3.08;;;;;;;35.59;29.94;98364.97;5055668;28;20043;-81
2022/08/02 09:06:24;;;;;;;3.35;3.15;;;;;;;34.85;33.29;98355.34;5056845;28;20033;-80
2022/08/02 09:08:52;;;;;;;2.97;2.78;;;;;;;35.94;29.85;98366.28;5076182;28;20044;-80
2022/08/02 09:11:23;;;;;;;2.70;2.60;;;;;;;35.82;28.38;98366.72;5086902;28;20090;-81
2022/08/02 09:13:55;;;;;;;2.97;2.80;;;;;;;35.56;31.54;98372.50;5071106;28;20025;-82
2022/08/02 09:16:43;;;;;;;3.42;3.22;;;;;;;36.30;28.96;98361.84;5072702;28;20048;-79
2022/08/02 09:19:24;;;;;;;2.67;2.47;;;;;;;36.49;28.01;98367.97;5054866;28;20523;-80
2022/08/02 09:21:59;;;;;;;5.57;2.58;;;;;;;36.73;29.19;98374.06;5070473;28;20027;-79
2022/08/02 09:24:25;;;;;;;3.38;3.17;;;;;;;35.90;32.53;98379.22;5073449;28;20103;-79
2022/08/02 09:26:51;;;;;;;3.47;3.28;;;;;;;35.22;30.26;98377.06;5055601;28;20029;-80
2022/08/02 09:29:22;;;;;;;2.97;2.78;;;;;;;35.39;31.44;98378.03;5063640;28;20041;-79
2022/08/02 09:31:49;;;;;;;4.70;4.32;;;;;;;35.50;33.64;98379.41;5067632;28;20047;-81
2022/08/02 09:34:15;;;;;;;3.45;3.13;;;;;;;35.72;30.73;98377.56;5071420;28;20106;-81
2022/08/02 09:36:44;;;;;;;2.45;2.35;;;;;;;36.73;28.37;98369.13;5072080;28;20033;-80
2022/08/02 09:39:15;;;;;;;2.80;2.60;;;;;;;36.17;29.53;98372.19;5070059;28;20033;-80
2022/08/02 09:41:44;;;;;;;3.33;3.03;;;;;;;35.88;34.68;98378.97;5055457;28;20033;-80
2022/08/02 09:44:12;;;;;;;2.80;2.60;;;;;;;35.86;31.19;98368.06;5073230;28;20044;-80
2022/08/02 09:46:46;;;;;;;2.80;2.60;;;;;;;35.58;31.09;98369.91;5054963;28;20062;-80
2022/08/02 09:49:15;;;;;;;2.60;2.50;;;;;;;35.36;30.88;98363.94;5072017;28;20401;-81
2022/08/02 09:51:49;;;;;;;2.83;2.63;;;;;;;36.28;31.61;98370.16;5072440;28;20082;-81
2022/08/02 09:54:27;;;;;;;3.22;3.03;;;;;;;34.84;31.83;98368.84;5072012;28;20029;-80
2022/08/02 09:56:58;;;;;;;3.72;3.42;;;;;;;35.09;32.51;98378.75;5071933;28;20040;-81
2022/08/02 09:59:26;;;;;;;3.25;3.05;;;;;;;35.65;30.34;98371.50;5049222;28;20068;-80
2022/08/02 10:01:54;;;;;;;3.05;2.80;;;;;;;36.25;31.03;98368.31;5053558;28;20028;-80
2022/08/02 10:04:27;;;;;;;3.13;2.92;;;;;;;35.42;33.21;98359.88;5070494;28;20036;-81
2022/08/02 10:06:53;;;;;;;3.85;3.65;;;;;;;35.07;33.20;98361.34;5072790;28;20036;-80
2022/08/02 10:09:21;;;;;;;3.10;2.90;;;;;;;36.69;28.32;98359.19;5072711;28;20397;-81
2022/08/02 10:11:48;;;;;;;2.80;2.60;;;;;;;36.38;29.78;98357.22;5069155;28;20609;-80
2022/08/02 10:14:15;;;;;;;3.55;3.25;;;;;;;36.42;29.45;98362.69;5071988;28;20484;-81
2022/08/02 10:16:42;;;;;;;2.97;2.72;;;;;;;37.39;27.32;98359.94;5073393;28;20043;-80
2022/08/02 10:19:09;;;;;;;3.15;2.85;;;;;;;36.96;28.31;98361.41;5026907;28;1205748;-80
2022/08/02 10:21:59;;;;;;;2.70;2.50;;;;;;;36.93;26.73;98353.84;5073257;28;20472;-81
2022/08/02 10:24:29;;;;;;;2.83;2.63;;;;;;;36.50;28.88;98358.84;5055909;28;20040;-81
2022/08/02 10:26:59;;;;;;;3.30;3.10;;;;;;;36.93;29.22;98348.13;5067531;28;20029;-80
2022/08/02 10:29:36;;;;;;;3.40;3.20;;;;;;;36.54;32.66;98359.41;5069916;28;20500;-81
2022/08/02 10:32:05;;;;;;;4.07;3.80;;;;;;;36.48;32.04;98352.09;5073743;28;20041;-80
2022/08/02 10:34:41;;;;;;;3.28;3.08;;;;;;;37.06;28.19;98356.22;5064204;28;20456;-80
2022/08/02 10:37:08;;;;;;;3.03;2.83;;;;;;;37.71;28.48;98353.97;5043836;28;20060;-79
2022/08/02 10:39:39;;;;;;;3.63;3.33;;;;;;;37.46;28.12;98355.00;5069103;28;20034;-79
2022/08/02 10:42:05;;;;;;;3.13;2.92;;;;;;;37.26;30.15;98359.66;5068051;28;20029;-79
2022/08/02 10:44:33;;;;;;;3.72;3.03;;;;;;;36.91;28.26;98367.06;5075729;28;20024;-80
2022/08/02 10:47:17;;;;;;;2.95;2.75;;;;;;;37.48;27.31;98355.28;5073851;28;20058;-80
2022/08/02 10:49:54;;;;;;;3.25;2.95;;;;;;;36.92;27.03;98369.47;5071785;28;20115;-80
2022/08/02 10:52:23;;;;;;;5.93;2.63;;;;;;;36.77;33.21;98366.00;5070979;28;20094;-80
2022/08/02 10:54:49;;;;;;;4.35;4.00;;;;;;;36.92;29.52;98360.09;5086616;28;20123;-82
2022/08/02 10:57:21;;;;;;;3.67;3.38;;;;;;;37.57;28.21;98346.41;5063404;28;20065;-83
2022/08/02 10:59:49;;;;;;;4.10;3.80;;;;;;;37.03;33.83;98346.59;5065257;28;20068;-82
2022/08/02 11:02:40;;;;;;;4.63;4.28;;;;;;;37.03;33.33;98360.13;5045565;28;20044;-80
2022/08/02 11:05:12;;;;;;;4.53;4.22;;;;;;;37.01;34.17;98357.78;5065807;28;20089;-81
2022/08/02 11:07:46;;;;;;;4.72;4.32;;;;;;;37.08;29.38;98345.81;5065980;28;20381;-81
2022/08/02 11:10:25;;;;;;;3.63;3.33;;;;;;;36.89;31.38;98361.09;5064494;28;20388;-81
2022/08/02 11:13:14;;;;;;;4.05;3.85;;;;;;;35.92;31.10;98359.50;5072123;28;20025;-80
2022/08/02 11:16:00;;;;;;;5.05;4.65;;;;;;;35.99;35.89;98353.34;5069954;28;20048;-81
2022/08/02 11:18:46;;;;;;;4.82;4.45;;;;;;;37.62;27.81;98351.38;5069333;28;20029;-81
2022/08/02 11:21:21;;;;;;;4.97;4.53;;;;;;;37.58;27.84;98345.88;5066525;28;20071;-81
2022/08/02 11:23:48;;;;;;;3.83;3.53;;;;;;;38.27;27.99;98344.03;5066815;28;20040;-81
2022/08/02 11:26:32;;;;;;;4.03;3.72;;;;;;;38.09;26.88;98338.06;5069701;28;20098;-81
2022/08/02 11:29:02;;;;;;;4.72;4.43;;;;;;;37.72;30.21;98344.03;5072593;28;20514;-81
2022/08/02 11:31:36;;;;;;;5.35;4.95;;;;;;;36.92;33.33;98343.72;5073631;28;20043;-81
2022/08/02 11:34:05;;;;;;;6.53;6.03;;;;;;;36.26;38.30;98364.19;5073123;28;20086;-82
2022/08/02 11:36:31;;;;;;;5.57;5.18;;;;;;;36.52;29.47;98349.78;5072118;28;20024;-81
2022/08/02 11:39:15;;;;;;;6.32;5.82;;;;;;;36.08;31.13;98358.88;5069761;28;20059;-80
2022/08/02 11:41:41;;;;;;;5.68;5.28;;;;;;;36.42;30.62;98362.69;5070150;28;20025;-79
2022/08/02 11:44:08;;;;;;;5.55;5.15;;;;;;;37.13;27.64;98359.34;5068254;28;20504;-80
2022/08/02 11:46:34;;;;;;;6.65;6.15;;;;;;;36.04;37.84;98359.09;5071312;28;20040;-81